Time;durP1;ratioP1;P1;durP2;ratioP2;P2;SDS_P1;SDS_P2;PMS_P1;PMS_P2;Temp;Humidity;BMP_temperature;BMP_pressure;BME280_temperature;BME280_humidity;BME280_pressure;Samples;Min_cycle;Max_cycle;Signal;HPM_P1;HPM_P2
2022/09/23 00:01:17;;;;;;;10.50;5.10;;;;;;;10.94;78.12;100338.70;1756648;80;21144;-46
2022/09/23 00:03:47;;;;;;;7.62;4.62;;;;;;;10.92;78.15;100341.09;1757903;79;21225;-46
2022/09/23 00:06:20;;;;;;;10.78;4.95;;;;;;;10.88;78.17;100337.88;1751182;79;21139;-46
2022/09/23 00:08:48;;;;;;;7.12;4.30;;;;;;;10.89;78.17;100331.66;1758238;79;21055;-47
2022/09/23 00:11:18;;;;;;;6.95;4.42;;;;;;;10.89;78.17;100331.66;1761225;80;21075;-45
2022/09/23 00:13:46;;;;;;;7.85;4.80;;;;;;;10.86;78.33;100333.23;1754408;80;21109;-46
2022/09/23 00:16:16;;;;;;;8.35;4.50;;;;;;;10.85;78.49;100330.72;1749281;80;21234;-46
2022/09/23 00:18:44;;;;;;;7.72;5.30;;;;;;;10.86;78.52;100334.54;1759629;80;21087;-46
2022/09/23 00:21:12;;;;;;;10.40;4.70;;;;;;;10.90;78.29;100328.05;1754467;79;21052;-47
2022/09/23 00:23:39;;;;;;;8.35;5.03;;;;;;;10.93;78.22;100331.75;1755161;80;21600;-47
2022/09/23 00:26:07;;;;;;;9.60;5.15;;;;;;;10.91;78.20;100331.05;1746497;80;21047;-47
2022/09/23 00:28:34;;;;;;;8.05;4.55;;;;;;;10.86;78.28;100327.96;1755668;80;22018;-46
2022/09/23 00:31:05;;;;;;;6.35;4.20;;;;;;;10.82;78.45;100324.38;1759043;79;21058;-47
2022/09/23 00:33:32;;;;;;;6.70;4.45;;;;;;;10.88;78.46;100325.20;1756070;80;21039;-47
2022/09/23 00:36:03;;;;;;;8.65;5.17;;;;;;;10.91;78.19;100326.24;1746909;80;21117;-47
2022/09/23 00:38:30;;;;;;;11.73;5.70;;;;;;;10.89;78.22;100313.70;1761973;79;21046;-47
2022/09/23 00:40:58;;;;;;;8.08;4.83;;;;;;;10.84;78.36;100316.70;1700719;82;21232;-47
2022/09/23 00:43:47;;;;;;;7.58;5.00;;;;;;;10.79;78.49;100316.24;1761594;79;21082;-47
2022/09/23 00:46:31;;;;;;;7.42;4.70;;;;;;;10.75;78.60;100312.20;1754769;79;21003;-47
2022/09/23 00:49:08;;;;;;;8.68;5.33;;;;;;;10.77;78.57;100313.73;1761016;80;21173;-47
2022/09/23 00:51:39;;;;;;;7.33;4.87;;;;;;;10.79;78.63;100313.61;1760100;79;21018;-47
2022/09/23 00:54:05;;;;;;;6.92;4.85;;;;;;;10.81;79.04;100313.03;1760986;80;21214;-47
2022/09/23 00:56:32;;;;;;;8.90;4.92;;;;;;;10.79;78.95;100309.66;1755003;79;21012;-47
2022/09/23 00:58:59;;;;;;;8.25;5.10;;;;;;;10.80;78.89;100315.30;1763289;79;21043;-47
2022/09/23 01:01:26;;;;;;;7.35;5.08;;;;;;;10.83;78.68;100311.09;1758044;79;21133;-47
2022/09/23 01:03:53;;;;;;;8.95;5.40;;;;;;;10.87;78.67;100315.63;1762926;79;21115;-47
2022/09/23 01:06:20;;;;;;;8.53;5.70;;;;;;;10.90;78.66;100317.52;1760245;80;21874;-46
2022/09/23 01:08:46;;;;;;;8.20;5.33;;;;;;;10.96;78.89;100320.12;1701201;82;21086;-46
2022/09/23 01:11:27;;;;;;;7.05;4.50;;;;;;;11.01;78.71;100314.48;1771915;80;21060;-46
2022/09/23 01:14:12;;;;;;;7.62;5.37;;;;;;;11.06;78.47;100313.61;1758444;80;21574;-47
2022/09/23 01:16:55;;;;;;;9.15;5.62;;;;;;;11.12;78.16;100307.84;1738596;80;21270;-47
2022/09/23 01:19:56;;;;;;;7.95;5.30;;;;;;;11.20;77.89;100311.17;1758908;80;21244;-46
2022/09/23 01:22:55;;;;;;;9.05;4.97;;;;;;;11.19;77.75;100309.48;1759779;79;21081;-46
2022/09/23 01:25:56;;;;;;;6.75;4.67;;;;;;;11.18;77.77;100307.80;1690902;80;21308;-46
2022/09/23 01:28:55;;;;;;;8.20;5.05;;;;;;;11.23;77.40;100307.79;1704444;82;21109;-47
2022/09/23 01:31:29;;;;;;;9.75;5.78;;;;;;;11.22;77.00;100305.28;1707803;82;21086;-47
2022/09/23 01:34:06;;;;;;;7.90;5.37;;;;;;;11.15;77.18;100307.10;1679716;80;21148;-46
2022/09/23 01:36:44;;;;;;;7.35;5.40;;;;;;;11.13;77.32;100304.27;1661474;82;22213;-47
2022/09/23 01:39:34;;;;;;;9.35;5.58;;;;;;;11.13;77.28;100306.89;1768841;79;21549;-47
2022/09/23 01:42:07;;;;;;;8.28;5.58;;;;;;;11.17;77.15;100299.08;1746045;80;21055;-46
2022/09/23 01:44:53;;;;;;;7.55;5.35;;;;;;;11.22;77.18;100304.79;1775802;79;21121;-47
2022/09/23 01:47:29;;;;;;;7.95;5.80;;;;;;;11.18;76.98;100298.13;1764819;80;21286;-47
2022/09/23 01:51:00;;;;;;;7.62;5.28;;;;;;;11.18;77.17;100295.95;1770562;79;21129;-46
2022/09/23 01:52:46;;;;;;;8.03;5.00;;;;;;;11.15;76.93;100295.25;1690003;80;21098;-47
2022/09/23 01:55:21;;;;;;;7.50;5.30;;;;;;;11.18;76.85;100298.58;1707231;82;21498;-46
2022/09/23 01:57:59;;;;;;;7.65;5.00;;;;;;;11.20;76.90;100292.73;1757763;80;21610;-46
2022/09/23 02:00:25;;;;;;;8.88;5.47;;;;;;;11.20;76.96;100296.19;1764198;79;21117;-47
2022/09/23 02:02:56;;;;;;;7.20;5.08;;;;;;;11.19;77.01;100294.51;1756156;79;21028;-46
2022/09/23 02:05:43;;;;;;;8.40;5.20;;;;;;;11.17;76.84;100297.76;1759836;79;21573;-47
2022/09/23 02:08:27;;;;;;;7.08;5.10;;;;;;;11.18;76.85;100300.76;1763518;79;21081;-47
2022/09/23 02:10:57;;;;;;;7.60;4.80;;;;;;;11.23;76.85;100299.03;1766419;80;21099;-50
2022/09/23 02:13:55;;;;;;;8.08;5.37;;;;;;;11.24;76.95;100290.17;1730820;82;21443;-46
2022/09/23 02:16:38;;;;;;;8.58;4.85;;;;;;;11.24;76.97;100291.49;1763278;80;21094;-46
2022/09/23 02:19:10;;;;;;;9.25;5.80;;;;;;;11.26;76.87;100289.56;1701024;82;21061;-46
2022/09/23 02:21:41;;;;;;;7.85;5.05;;;;;;;11.30;76.57;100287.86;1776505;79;21046;-46
2022/09/23 02:24:13;;;;;;;7.87;5.37;;;;;;;11.29;76.46;100288.81;1758366;80;21062;-46
2022/09/23 02:27:00;;;;;;;8.60;5.40;;;;;;;11.27;76.50;100292.55;1759198;80;21977;-47
2022/09/23 02:29:30;;;;;;;;;;;;;;;11.18;76.47;100293.31;1757426;80;21059;-46
2022/09/23 02:32:24;;;;;;;8.40;5.17;;;;;;;11.09;76.62;100290.98;1760271;80;20164;-46
2022/09/23 02:35:05;;;;;;;7.55;4.80;;;;;;;11.08;76.72;100289.33;1764069;80;21740;-46
2022/09/23 02:37:41;;;;;;;8.98;5.47;;;;;;;11.07;76.83;100287.64;1758627;79;21120;-46
2022/09/23 02:40:22;;;;;;;7.12;4.60;;;;;;;11.05;77.12;100279.05;1767605;79;22065;-47
2022/09/23 02:43:18;;;;;;;6.78;4.83;;;;;;;10.98;77.19;100286.62;1774632;80;21074;-48
2022/09/23 02:45:46;;;;;;;7.85;4.78;;;;;;;10.99;77.21;100283.00;1771621;80;20967;-47
2022/09/23 02:48:17;;;;;;;10.48;5.12;;;;;;;11.04;77.18;100286.09;1768587;79;21723;-47
2022/09/23 02:53:15;;;;;;;10.08;5.60;;;;;;;11.17;77.35;100280.64;1806669;78;22482;-48
2022/09/23 02:55:41;;;;;;;7.60;4.87;;;;;;;11.24;76.83;100284.42;1757103;80;21516;-47
2022/09/23 02:58:08;;;;;;;8.18;5.05;;;;;;;11.23;76.70;100287.18;1750607;80;21751;-48
2022/09/23 03:00:58;;;;;;;8.03;5.25;;;;;;;11.24;76.57;100287.55;1751172;80;21133;-48
2022/09/23 03:03:52;;;;;;;8.18;4.85;;;;;;;11.26;76.68;100293.51;1748600;80;21046;-48
2022/09/23 03:06:30;;;;;;;9.25;5.12;;;;;;;11.25;76.78;100290.05;1749568;80;21063;-47
2022/09/23 03:09:25;;;;;;;9.13;4.92;;;;;;;11.18;76.74;100295.48;1748102;80;21109;-48
2022/09/23 03:11:59;;;;;;;8.75;5.17;;;;;;;11.14;76.79;100292.74;1749515;80;21123;-46
2022/09/23 03:14:36;;;;;;;7.72;4.75;;;;;;;11.14;76.78;100290.11;1748191;80;21763;-47
2022/09/23 03:17:09;;;;;;;10.45;5.33;;;;;;;11.20;77.10;100293.55;1744320;80;20979;-47
2022/09/23 03:19:56;;;;;;;9.33;5.25;;;;;;;11.23;77.03;100288.03;1750576;80;21525;-47
2022/09/23 03:22:47;;;;;;;6.97;4.58;;;;;;;11.23;77.07;100288.03;1754139;80;21038;-52
2022/09/23 03:25:17;;;;;;;7.42;4.95;;;;;;;11.25;76.89;100295.31;1736967;80;21134;-47
2022/09/23 03:27:44;;;;;;;7.42;5.12;;;;;;;11.27;76.59;100295.19;1753437;80;21038;-47
2022/09/23 03:30:12;;;;;;;8.30;5.00;;;;;;;11.28;76.56;100295.06;1748339;80;21486;-48
2022/09/23 03:32:43;;;;;;;8.05;5.35;;;;;;;11.22;76.57;100297.38;1742600;80;21035;-47
2022/09/23 03:35:10;;;;;;;10.55;5.47;;;;;;;11.15;76.72;100299.69;1745990;80;21085;-47
2022/09/23 03:37:59;;;;;;;7.00;4.60;;;;;;;11.09;76.84;100297.56;1731890;80;21092;-47
2022/09/23 03:40:31;;;;;;;7.58;5.22;;;;;;;11.09;76.86;100296.25;1742052;80;21431;-48
2022/09/23 03:42:59;;;;;;;6.78;4.78;;;;;;;11.08;76.93;100292.78;1752280;80;21714;-48
2022/09/23 03:45:30;;;;;;;9.53;5.28;;;;;;;11.09;77.26;100297.56;1748645;80;21149;-48
2022/09/23 03:47:56;;;;;;;8.30;4.95;;;;;;;11.14;77.22;100294.88;1746394;81;21105;-48
2022/09/23 03:50:23;;;;;;;10.03;4.47;;;;;;;11.16;76.69;100290.81;1747408;80;21831;-50
2022/09/23 03:52:50;;;;;;;9.10;4.70;;;;;;;11.23;76.68;100291.98;1749255;80;21118;-48
2022/09/23 03:55:18;;;;;;;9.00;5.65;;;;;;;11.28;76.30;100299.48;1746593;80;21168;-48
2022/09/23 03:57:44;;;;;;;9.18;5.47;;;;;;;11.21;76.09;100292.58;1753316;80;21463;-48
2022/09/23 04:00:13;;;;;;;11.08;4.78;;;;;;;11.17;76.24;100299.56;1748237;80;21086;-48
2022/09/23 04:02:41;;;;;;;6.97;4.80;;;;;;;11.14;76.29;100295.38;1749406;80;21277;-48
2022/09/23 04:05:10;;;;;;;6.58;4.45;;;;;;;11.22;76.44;100292.11;1756396;80;21078;-48
2022/09/23 04:07:37;;;;;;;7.87;5.05;;;;;;;11.27;76.00;100294.70;1756402;80;21474;-48
2022/09/23 04:10:06;;;;;;;7.55;5.33;;;;;;;11.30;75.95;100299.71;1744005;80;21085;-48
2022/09/23 04:12:34;;;;;;;7.92;5.30;;;;;;;11.32;76.02;100296.95;1750747;81;21094;-47
2022/09/23 04:15:00;;;;;;;6.47;4.65;;;;;;;11.30;75.93;100301.52;1745929;80;21200;-48
2022/09/23 04:17:27;;;;;;;7.78;5.45;;;;;;;11.28;75.73;100299.02;1754740;80;21082;-47
2022/09/23 04:19:53;;;;;;;9.33;4.20;;;;;;;11.34;75.81;100297.65;1723735;82;21060;-48
2022/09/23 04:22:20;;;;;;;7.67;5.10;;;;;;;11.44;75.73;100293.76;1695052;83;21126;-48
2022/09/23 04:24:47;;;;;;;7.28;4.95;;;;;;;11.50;75.61;100302.47;1692909;83;21086;-47
2022/09/23 04:27:14;;;;;;;7.20;4.60;;;;;;;11.51;75.34;100295.72;1707346;82;21112;-48
2022/09/23 04:29:41;;;;;;;8.25;4.55;;;;;;;11.47;75.00;100291.70;1689545;83;21085;-49
2022/09/23 04:32:09;;;;;;;6.58;4.75;;;;;;;11.46;74.86;100298.41;1687591;83;21567;-47
2022/09/23 04:34:36;;;;;;;7.35;4.97;;;;;;;11.42;74.90;100297.84;1701818;83;21133;-48
2022/09/23 04:37:03;;;;;;;7.10;4.70;;;;;;;11.40;75.11;100304.19;1680626;83;21034;-48
2022/09/23 04:39:30;;;;;;;9.70;4.85;;;;;;;11.41;75.35;100304.55;1692339;83;21157;-48
2022/09/23 04:41:56;;;;;;;7.42;4.67;;;;;;;11.47;75.16;100304.05;1694257;83;21119;-48
2022/09/23 04:44:23;;;;;;;6.60;4.30;;;;;;;11.52;74.51;100303.98;1694480;83;21498;-48
2022/09/23 04:46:50;;;;;;;8.63;4.87;;;;;;;11.51;74.48;100306.26;1696773;83;21061;-50
2022/09/23 04:49:17;;;;;;;7.87;5.00;;;;;;;11.46;74.24;100301.87;1690120;83;21458;-48
2022/09/23 04:51:43;;;;;;;7.17;4.72;;;;;;;11.45;74.38;100300.22;1690374;83;21598;-48
2022/09/23 04:54:11;;;;;;;7.17;4.65;;;;;;;11.40;74.28;100301.55;1743531;80;21499;-48
2022/09/23 04:56:38;;;;;;;7.15;4.62;;;;;;;11.36;74.25;100302.80;1745665;80;21118;-48
2022/09/23 04:59:05;;;;;;;8.70;5.03;;;;;;;11.38;74.17;100307.44;1731059;80;21054;-47
2022/09/23 05:01:33;;;;;;;7.20;4.55;;;;;;;11.36;74.13;100304.94;1710314;82;21108;-48
2022/09/23 05:04:04;;;;;;;7.42;4.67;;;;;;;11.37;74.25;100312.38;1736646;80;21152;-47
2022/09/23 05:06:33;;;;;;;7.20;5.00;;;;;;;11.36;74.37;100304.94;1743471;80;21087;-48
2022/09/23 05:09:00;;;;;;;7.42;4.67;;;;;;;11.36;74.28;100306.25;1740711;80;21380;-48
2022/09/23 05:11:28;;;;;;;7.72;4.78;;;;;;;11.38;74.13;100304.34;1745088;80;21519;-48
2022/09/23 05:13:55;;;;;;;7.12;4.25;;;;;;;11.40;74.05;100309.45;1747737;80;21090;-48
2022/09/23 05:16:22;;;;;;;7.53;5.15;;;;;;;11.40;74.26;100308.14;1742013;80;21234;-48
2022/09/23 05:18:49;;;;;;;6.75;4.22;;;;;;;11.46;74.27;100310.27;1738123;80;21051;-48
2022/09/23 05:21:20;;;;;;;9.78;4.70;;;;;;;11.49;74.11;100308.20;1737846;80;21656;-48
2022/09/23 05:23:57;;;;;;;8.25;4.67;;;;;;;11.53;73.79;100305.67;1738421;82;21067;-48
2022/09/23 05:26:25;;;;;;;7.58;4.75;;;;;;;11.58;73.56;100303.94;1737111;80;21066;-49
2022/09/23 05:28:52;;;;;;;9.13;4.65;;;;;;;11.62;73.35;100309.31;1741569;80;21226;-48
2022/09/23 05:31:21;;;;;;;7.20;4.47;;;;;;;11.60;73.47;100305.98;1745639;80;21563;-47
2022/09/23 05:33:52;;;;;;;6.90;4.78;;;;;;;11.65;73.68;100309.06;1743731;80;21109;-48
2022/09/23 05:36:20;;;;;;;9.33;5.03;;;;;;;11.73;73.44;100305.74;1736377;81;21149;-48
2022/09/23 05:38:48;;;;;;;7.45;4.75;;;;;;;11.83;72.75;100305.79;1737175;80;21102;-48
2022/09/23 05:41:15;;;;;;;7.62;5.00;;;;;;;11.80;72.67;100303.41;1740154;80;21111;-47
2022/09/23 05:43:43;;;;;;;7.30;5.10;;;;;;;11.76;72.87;100307.30;1743987;80;21558;-47
2022/09/23 05:46:21;;;;;;;8.83;5.85;;;;;;;11.70;72.84;100307.32;1728758;80;21094;-48
2022/09/23 05:48:48;;;;;;;7.83;5.25;;;;;;;11.65;73.06;100303.78;1744691;80;21071;-48
2022/09/23 05:51:19;;;;;;;10.65;5.67;;;;;;;11.66;73.17;100305.93;1735495;80;21525;-48
2022/09/23 05:53:46;;;;;;;8.90;5.60;;;;;;;11.71;72.93;100299.78;1738091;80;21162;-48
2022/09/23 05:56:17;;;;;;;10.72;6.28;;;;;;;11.71;72.90;100305.88;1737212;80;21059;-48
2022/09/23 05:58:43;;;;;;;8.93;6.33;;;;;;;11.73;72.94;100304.92;1740639;80;21063;-48
2022/09/23 06:01:20;;;;;;;9.50;5.78;;;;;;;11.73;73.02;100310.19;1738426;80;21020;-48
2022/09/23 06:03:54;;;;;;;8.13;5.25;;;;;;;11.70;73.07;100305.55;1728284;80;21062;-48
2022/09/23 06:06:29;;;;;;;10.75;5.60;;;;;;;11.71;73.05;100311.64;1737998;80;21570;-48
2022/09/23 06:08:56;;;;;;;9.38;5.42;;;;;;;11.78;73.03;100307.98;1737759;80;21065;-48
2022/09/23 06:11:23;;;;;;;9.10;5.45;;;;;;;11.83;72.86;100307.11;1726550;80;21569;-47
2022/09/23 06:13:54;;;;;;;11.60;5.87;;;;;;;11.89;72.81;100304.78;1735349;80;21499;-48
2022/09/23 06:16:21;;;;;;;7.92;5.45;;;;;;;11.94;72.75;100311.00;1735480;80;21561;-48
2022/09/23 06:18:47;;;;;;;9.13;5.25;;;;;;;11.94;72.24;100307.05;1739117;80;22136;-48
2022/09/23 06:21:15;;;;;;;8.48;5.20;;;;;;;11.95;72.11;100311.34;1733431;80;21086;-47
2022/09/23 06:23:42;;;;;;;8.43;5.20;;;;;;;12.02;71.98;100311.64;1737325;82;21071;-48
2022/09/23 06:26:12;;;;;;;8.88;5.50;;;;;;;12.13;71.84;100308.91;1738410;80;21102;-48
2022/09/23 06:28:42;;;;;;;8.15;5.25;;;;;;;12.21;71.19;100306.92;1737335;80;21070;-48
2022/09/23 06:31:14;;;;;;;8.15;5.05;;;;;;;12.28;70.99;100305.90;1733395;80;21319;-47
2022/09/23 06:33:42;;;;;;;7.67;5.15;;;;;;;12.34;70.70;100306.66;1738691;80;21433;-48
2022/09/23 06:36:09;;;;;;;8.68;4.95;;;;;;;12.43;70.69;100309.81;1737582;80;21075;-48
2022/09/23 06:38:48;;;;;;;7.80;4.90;;;;;;;12.58;70.58;100308.93;1735560;80;21047;-47
2022/09/23 06:41:13;;;;;;;7.62;5.33;;;;;;;12.72;70.29;100311.14;1734707;82;21050;-47
2022/09/23 06:43:40;;;;;;;6.85;4.67;;;;;;;12.84;69.19;100310.52;1737160;80;21123;-47
2022/09/23 06:46:07;;;;;;;7.87;5.00;;;;;;;12.85;68.88;100307.41;1736715;80;21051;-47
2022/09/23 06:48:34;;;;;;;6.67;4.55;;;;;;;12.87;68.76;100306.78;1739977;82;21047;-47
2022/09/23 06:51:02;;;;;;;9.03;4.87;;;;;;;12.88;67.86;100306.64;1731382;81;21125;-47
2022/09/23 06:53:32;;;;;;;7.65;4.92;;;;;;;12.93;67.72;100310.19;1746355;80;21377;-47
2022/09/23 06:56:05;;;;;;;8.93;4.90;;;;;;;12.92;67.83;100312.47;1748753;80;21087;-47
2022/09/23 06:58:32;;;;;;;7.28;4.87;;;;;;;12.93;68.05;100311.02;1747175;80;21071;-47
2022/09/23 07:01:10;;;;;;;7.95;4.85;;;;;;;12.96;67.69;100312.53;1747973;80;21082;-48
2022/09/23 07:03:38;;;;;;;8.48;4.95;;;;;;;12.96;67.63;100310.74;1748621;80;21090;-47
2022/09/23 07:06:06;;;;;;;9.03;4.37;;;;;;;13.00;67.64;100306.01;1750814;80;21501;-47
2022/09/23 07:08:33;;;;;;;6.95;4.28;;;;;;;13.08;67.69;100308.78;1748377;80;22338;-48
2022/09/23 07:11:01;;;;;;;6.70;4.22;;;;;;;13.13;67.27;100301.73;1746812;81;21054;-47
2022/09/23 07:13:28;;;;;;;7.70;5.08;;;;;;;13.13;67.04;100303.05;1749428;80;21124;-47
2022/09/23 07:15:57;;;;;;;8.95;4.78;;;;;;;13.15;66.28;100303.27;1726105;81;21086;-47
2022/09/23 07:18:24;;;;;;;9.08;5.47;;;;;;;13.12;65.71;100302.23;1745739;80;21112;-48
2022/09/23 07:20:52;;;;;;;8.28;5.33;;;;;;;13.06;65.89;100294.86;1746972;80;21138;-47
2022/09/23 07:23:18;;;;;;;9.88;4.53;;;;;;;13.04;66.17;100298.63;1752121;80;21050;-47
2022/09/23 07:25:49;;;;;;;6.97;4.75;;;;;;;13.09;66.11;100299.87;1748386;80;21065;-47
2022/09/23 07:28:17;;;;;;;7.20;4.53;;;;;;;13.12;65.77;100298.77;1736226;80;21118;-47
2022/09/23 07:30:45;;;;;;;8.50;4.28;;;;;;;13.13;65.59;100300.41;1734168;80;22426;-47
2022/09/23 07:33:13;;;;;;;9.58;4.90;;;;;;;13.13;64.82;100297.30;1747942;80;21294;-47
2022/09/23 07:35:40;;;;;;;6.22;4.20;;;;;;;13.13;64.60;100294.66;1753217;80;21058;-47
2022/09/23 07:38:09;;;;;;;7.53;4.22;;;;;;;13.09;64.90;100293.27;1749749;80;21020;-47
2022/09/23 07:40:35;;;;;;;7.90;4.50;;;;;;;13.11;64.96;100295.30;1750067;80;21420;-47
2022/09/23 07:43:04;;;;;;;8.28;4.37;;;;;;;13.18;64.49;100294.25;1752366;80;21085;-48
2022/09/23 07:45:32;;;;;;;6.72;4.37;;;;;;;13.20;64.87;100288.33;1753348;80;21129;-47
2022/09/23 07:48:00;;;;;;;8.88;4.30;;;;;;;13.25;65.11;100287.91;1736443;80;21022;-47
2022/09/23 07:50:31;;;;;;;7.53;4.70;;;;;;;13.29;64.65;100282.67;1740831;80;21320;-47
2022/09/23 07:52:56;;;;;;;6.72;4.03;;;;;;;13.33;64.80;100284.92;1742063;80;21027;-47
2022/09/23 07:55:22;;;;;;;7.95;4.35;;;;;;;13.36;64.69;100279.82;1731938;81;21066;-49
2022/09/23 07:57:49;;;;;;;6.50;3.98;;;;;;;13.42;64.42;100279.26;1751298;80;21118;-47
2022/09/23 08:00:17;;;;;;;6.15;3.65;;;;;;;13.48;64.02;100282.66;1750054;81;21046;-47
2022/09/23 08:02:44;;;;;;;6.53;4.03;;;;;;;13.46;64.24;100279.30;1749584;80;21094;-48
2022/09/23 08:05:10;;;;;;;7.97;4.25;;;;;;;13.46;64.18;100271.37;1747964;80;21129;-48
2022/09/23 08:07:38;;;;;;;7.35;4.83;;;;;;;13.47;64.37;100274.87;1749885;80;21090;-46
2022/09/23 08:10:07;;;;;;;5.87;4.08;;;;;;;13.45;64.99;100272.37;1748801;80;22963;-46
2022/09/23 08:12:33;;;;;;;9.43;4.00;;;;;;;13.47;65.45;100274.37;1747101;80;21094;-46
2022/09/23 08:15:01;;;;;;;7.70;4.28;;;;;;;13.52;65.50;100277.41;1751033;80;21114;-48
2022/09/23 08:17:28;;;;;;;7.58;4.60;;;;;;;13.51;65.28;100275.73;1715893;82;21054;-47
2022/09/23 08:19:55;;;;;;;8.75;4.60;;;;;;;13.48;64.91;100276.05;1680916;83;21146;-47
2022/09/23 08:22:21;;;;;;;7.45;4.75;;;;;;;13.47;64.65;100269.58;1693833;82;21200;-47
2022/09/23 08:24:48;;;;;;;6.78;4.22;;;;;;;13.44;64.74;100267.22;1694239;83;21131;-48
2022/09/23 08:27:14;;;;;;;7.00;4.40;;;;;;;13.41;64.40;100267.50;1711889;82;20991;-46
2022/09/23 08:29:41;;;;;;;6.75;4.03;;;;;;;13.35;64.52;100268.42;1689440;84;21471;-47
2022/09/23 08:32:08;;;;;;;8.30;4.65;;;;;;;13.29;64.62;100269.45;1683448;83;21086;-47
2022/09/23 08:34:34;;;;;;;7.80;4.70;;;;;;;13.28;64.88;100271.74;1701316;83;21103;-47
2022/09/23 08:37:01;;;;;;;7.05;4.80;;;;;;;13.33;65.23;100274.81;1709507;82;21133;-47
2022/09/23 08:39:27;;;;;;;8.73;6.05;;;;;;;13.39;65.76;100278.22;1687919;83;21095;-46
2022/09/23 08:42:20;;;;;;;8.75;5.80;;;;;;;13.40;66.32;100281.22;1689904;83;21116;-46
2022/09/23 08:44:55;;;;;;;7.90;5.12;;;;;;;13.36;67.02;100279.35;1684752;83;21062;-46
2022/09/23 08:47:26;;;;;;;8.18;5.05;;;;;;;13.24;67.81;100273.84;1699727;83;21268;-46
2022/09/23 08:50:16;;;;;;;8.78;5.97;;;;;;;13.09;68.99;100269.48;1699168;83;21057;-46
2022/09/23 08:53:03;;;;;;;6.72;4.40;;;;;;;12.95;69.68;100277.37;1699184;83;21126;-46
2022/09/23 08:55:42;;;;;;;7.60;4.75;;;;;;;12.79;70.31;100270.03;1700465;83;21081;-47
2022/09/23 08:58:37;;;;;;;5.12;2.55;;;;;;;12.65;70.01;100269.12;1633528;86;21087;-46
2022/09/23 09:01:26;;;;;;;4.87;2.35;;;;;;;12.53;69.39;100269.74;1698025;83;21148;-47
2022/09/23 09:03:55;;;;;;;4.87;2.35;;;;;;;12.42;68.84;100281.28;1639494;85;21122;-48
2022/09/23 09:06:34;;;;;;;4.15;1.98;;;;;;;12.32;69.16;100279.08;1630280;85;21341;-48
2022/09/23 09:09:03;;;;;;;4.08;1.77;;;;;;;12.24;69.47;100277.14;1633159;85;21051;-46
2022/09/23 09:11:36;;;;;;;2.50;1.02;;;;;;;12.22;69.66;100275.14;1628125;87;21581;-47
2022/09/23 09:14:21;;;;;;;3.67;1.62;;;;;;;12.26;69.30;100281.80;1655460;84;21164;-46
2022/09/23 09:16:59;;;;;;;3.45;1.30;;;;;;;12.26;69.23;100279.16;1630998;86;21514;-47
2022/09/23 09:19:55;;;;;;;3.90;1.52;;;;;;;12.18;68.75;100277.68;1653540;84;21162;-47
2022/09/23 09:22:47;;;;;;;4.57;1.53;;;;;;;12.12;68.55;100272.11;1658555;86;21189;-47
2022/09/23 09:25:36;;;;;;;4.30;1.45;;;;;;;12.05;68.44;100269.18;1647060;84;21197;-48
2022/09/23 09:28:47;;;;;;;4.10;1.27;;;;;;;12.02;68.73;100272.94;1654378;84;21585;-48
2022/09/23 09:31:37;;;;;;;3.15;1.07;;;;;;;12.08;69.56;100271.55;1655622;84;21123;-48
2022/09/23 09:34:35;;;;;;;4.08;1.50;;;;;;;12.21;68.63;100272.14;1626309;87;21559;-48
2022/09/23 09:37:10;;;;;;;3.90;1.60;;;;;;;12.30;68.70;100273.61;1659996;84;21723;-49
2022/09/23 09:39:36;;;;;;;4.05;1.45;;;;;;;12.28;69.04;100267.64;1622879;87;21099;-48
2022/09/23 09:42:04;;;;;;;4.00;1.50;;;;;;;12.31;69.55;100271.34;1661590;84;21146;-47
2022/09/23 09:44:48;;;;;;;3.65;1.42;;;;;;;12.39;69.12;100268.35;1629812;87;21115;-48
2022/09/23 09:47:27;;;;;;;3.47;1.45;;;;;;;12.43;68.87;100273.69;1662212;84;21086;-48
2022/09/23 09:50:09;;;;;;;4.00;1.70;;;;;;;12.48;69.24;100269.83;1627037;87;21158;-48
2022/09/23 09:52:36;;;;;;;4.12;1.60;;;;;;;12.58;68.98;100264.88;1653046;84;21142;-46
2022/09/23 09:55:28;;;;;;;4.20;1.80;;;;;;;12.67;68.94;100265.84;1663924;85;21294;-47
2022/09/23 09:58:03;;;;;;;4.45;2.10;;;;;;;12.75;68.81;100262.52;1721794;80;21067;-46
2022/09/23 10:00:35;;;;;;;4.80;2.00;;;;;;;12.78;68.77;100268.35;1730946;80;21043;-46
2022/09/23 10:03:16;;;;;;;3.90;1.70;;;;;;;12.78;69.24;100273.63;1732105;80;21048;-46
2022/09/23 10:05:49;;;;;;;4.50;1.80;;;;;;;12.80;68.79;100273.50;1728066;80;21059;-47
2022/09/23 10:08:35;;;;;;;4.53;2.17;;;;;;;12.87;68.47;100271.13;1731026;80;21131;-46
2022/09/23 10:11:14;;;;;;;3.50;1.50;;;;;;;12.93;68.76;100273.22;1734769;82;21104;-47
2022/09/23 10:14:06;;;;;;;4.20;1.90;;;;;;;13.05;67.30;100264.66;1738377;80;21123;-46
2022/09/23 10:16:33;;;;;;;5.70;2.10;;;;;;;13.13;66.84;100264.28;1733869;80;21066;-46
2022/09/23 10:19:01;;;;;;;4.78;2.00;;;;;;;13.14;65.78;100261.97;1700090;82;21109;-46
2022/09/23 10:21:34;;;;;;;3.80;1.55;;;;;;;13.17;66.29;100264.33;1737120;80;21113;-46
2022/09/23 10:24:04;;;;;;;5.35;1.50;;;;;;;13.26;65.20;100261.81;1735529;80;21042;-47
2022/09/23 10:26:54;;;;;;;4.30;1.70;;;;;;;13.34;65.17;100260.64;1736743;80;21123;-47
2022/09/23 10:29:34;;;;;;;3.05;1.30;;;;;;;13.45;63.53;100260.47;1728967;81;21589;-47
2022/09/23 10:32:31;;;;;;;3.95;1.60;;;;;;;13.52;61.73;100252.30;1735376;80;21138;-46
2022/09/23 10:35:08;;;;;;;4.40;1.30;;;;;;;13.56;62.02;100247.05;1738013;81;21090;-46
2022/09/23 10:37:40;;;;;;;;;;;;;;;13.64;62.10;100245.02;1731950;80;21102;-46
2022/09/23 10:46:40;;;;;;;4.70;1.62;;;;;;;13.83;61.69;100245.90;1734111;80;22074;-47
2022/09/23 10:49:55;;;;;;;4.20;1.32;;;;;;;13.77;62.66;100242.05;1696589;80;21214;-47
2022/09/23 10:53:05;;;;;;;3.65;1.37;;;;;;;13.76;62.66;100244.33;1739444;80;21087;-46
2022/09/23 10:55:44;;;;;;;3.12;1.12;;;;;;;13.86;62.74;100241.14;1730421;80;21141;-46
2022/09/23 10:58:22;;;;;;;3.52;1.40;;;;;;;13.89;62.22;100239.53;1726525;80;21060;-46
2022/09/23 11:01:16;;;;;;;3.72;1.40;;;;;;;13.99;62.96;100241.30;1725620;80;21083;-46
2022/09/23 11:04:40;;;;;;;3.45;1.45;;;;;;;14.13;62.46;100245.57;1735912;80;21133;-46
2022/09/23 11:07:16;;;;;;;4.70;1.62;;;;;;;14.19;62.33;100241.98;1737405;80;21494;-46
2022/09/23 11:09:49;;;;;;;;;;;;;;;14.15;61.60;100240.63;1736731;82;21086;-47
2022/09/23 11:12:46;;;;;;;3.65;1.40;;;;;;;14.14;61.75;100241.13;1701511;82;20218;-46
2022/09/23 11:15:38;;;;;;;4.33;1.57;;;;;;;14.21;61.93;100236.07;1730007;80;21057;-46
2022/09/23 11:19:01;;;;;;;3.83;1.45;;;;;;;14.37;60.74;100231.41;1735942;80;21207;-46
2022/09/23 11:21:57;;;;;;;4.47;1.95;;;;;;;14.52;61.16;100227.25;1737610;80;21092;-47
2022/09/23 11:24:47;;;;;;;5.22;1.60;;;;;;;14.63;59.75;100227.55;1738885;80;21027;-47
2022/09/23 11:27:52;;;;;;;5.85;1.60;;;;;;;14.58;59.35;100222.67;1736552;81;21039;-47
2022/09/23 11:30:19;;;;;;;4.50;1.87;;;;;;;14.54;59.92;100226.63;1736603;80;21039;-47
2022/09/23 11:33:22;;;;;;;3.65;1.20;;;;;;;14.57;60.33;100221.50;1740179;80;21664;-48
2022/09/23 11:35:54;;;;;;;5.75;1.40;;;;;;;14.58;57.08;100222.67;1736633;80;21134;-47
2022/09/23 11:38:26;;;;;;;3.70;1.62;;;;;;;14.56;57.45;100219.83;1731049;80;21082;-47
2022/09/23 11:40:59;;;;;;;3.12;1.30;;;;;;;14.62;57.63;100218.75;1718119;80;21038;-47
2022/09/23 11:43:28;;;;;;;4.00;1.35;;;;;;;14.68;57.00;100220.80;1730947;80;21055;-46
2022/09/23 11:46:22;;;;;;;3.52;1.42;;;;;;;14.65;57.54;100215.80;1726244;80;21080;-46
2022/09/23 11:49:03;;;;;;;5.60;1.52;;;;;;;14.66;57.84;100224.60;1736457;80;21087;-46
2022/09/23 11:51:42;;;;;;;3.87;1.67;;;;;;;14.64;57.62;100222.58;1735706;80;21071;-46
2022/09/23 11:54:22;;;;;;;3.77;1.62;;;;;;;14.63;58.50;100223.08;1734300;80;21078;-46
2022/09/23 11:56:53;;;;;;;3.50;1.37;;;;;;;14.60;58.05;100219.41;1752018;81;21026;-46
2022/09/23 11:59:42;;;;;;;4.03;1.30;;;;;;;14.59;57.34;100218.23;1737592;81;21255;-47
2022/09/23 12:02:42;;;;;;;2.85;1.25;;;;;;;14.60;56.97;100218.59;1749570;80;21038;-46
2022/09/23 12:05:13;;;;;;;3.85;1.50;;;;;;;14.61;56.66;100220.26;1735805;80;21662;-46
2022/09/23 12:07:55;;;;;;;3.67;1.60;;;;;;;14.50;56.62;100217.31;1746046;80;21147;-46
2022/09/23 12:10:23;;;;;;;3.47;1.40;;;;;;;14.35;57.38;100217.50;1737294;80;21093;-47